sensor_id;sensor_type;location;lat;lon;timestamp;pressure;altitude;pressure_sealevel;temperature;humidity
20630;BME280;17386;43.846;25.950;2024-01-15T00:02:16;100760.66;;;4.44;62.72
20630;BME280;17386;43.846;25.950;2024-01-15T00:04:41;100762.44;;;4.42;61.42
20630;BME280;17386;43.846;25.950;2024-01-15T00:07:09;100759.84;;;4.41;61.02
20630;BME280;17386;43.846;25.950;2024-01-15T00:09:35;100756.28;;;4.43;61.14
20630;BME280;17386;43.846;25.950;2024-01-15T00:12:01;100755.50;;;4.35;61.12
20630;BME280;17386;43.846;25.950;2024-01-15T00:14:27;100753.75;;;4.35;60.99
20630;BME280;17386;43.846;25.950;2024-01-15T00:16:53;100750.22;;;4.36;60.67
20630;BME280;17386;43.846;25.950;2024-01-15T00:19:23;100755.56;;;4.29;61.04
20630;BME280;17386;43.846;25.950;2024-01-15T00:21:49;100752.00;;;4.34;60.83
20630;BME280;17386;43.846;25.950;2024-01-15T00:24:15;100753.69;;;4.38;60.61
20630;BME280;17386;43.846;25.950;2024-01-15T00:26:41;100733.63;;;4.33;60.44
20630;BME280;17386;43.846;25.950;2024-01-15T00:29:07;100745.81;;;4.37;60.34
20630;BME280;17386;43.846;25.950;2024-01-15T00:31:33;100744.13;;;4.33;60.21
20630;BME280;17386;43.846;25.950;2024-01-15T00:33:58;100759.88;;;4.36;59.95
20630;BME280;17386;43.846;25.950;2024-01-15T00:36:24;100746.75;;;4.33;60.17
20630;BME280;17386;43.846;25.950;2024-01-15T00:38:49;100755.56;;;4.29;59.93
20630;BME280;17386;43.846;25.950;2024-01-15T00:41:15;100747.72;;;4.23;59.70
20630;BME280;17386;43.846;25.950;2024-01-15T00:43:41;100754.75;;;4.22;59.91
20630;BME280;17386;43.846;25.950;2024-01-15T00:46:07;100752.97;;;4.26;59.75
20630;BME280;17386;43.846;25.950;2024-01-15T00:48:33;100751.22;;;4.23;59.63
20630;BME280;17386;43.846;25.950;2024-01-15T00:50:58;100757.34;;;4.24;59.55
20630;BME280;17386;43.846;25.950;2024-01-15T00:53:25;100746.00;;;4.22;59.47
20630;BME280;17386;43.846;25.950;2024-01-15T00:55:50;100744.25;;;4.21;59.52
20630;BME280;17386;43.846;25.950;2024-01-15T00:58:16;100735.53;;;4.16;59.74
20630;BME280;17386;43.846;25.950;2024-01-15T01:00:42;100725.84;;;4.18;59.54
20630;BME280;17386;43.846;25.950;2024-01-15T01:03:08;100735.50;;;4.19;59.37
20630;BME280;17386;43.846;25.950;2024-01-15T01:05:36;100738.13;;;4.19;59.15
20630;BME280;17386;43.846;25.950;2024-01-15T01:08:03;100731.19;;;4.13;59.46
20630;BME280;17386;43.846;25.950;2024-01-15T01:10:28;100725.91;;;4.11;59.45
20630;BME280;17386;43.846;25.950;2024-01-15T01:12:53;100729.47;;;4.07;59.50
20630;BME280;17386;43.846;25.950;2024-01-15T01:15:19;100720.69;;;4.08;59.78
20630;BME280;17386;43.846;25.950;2024-01-15T01:17:45;100718.97;;;4.04;59.78
20630;BME280;17386;43.846;25.950;2024-01-15T01:20:11;100714.63;;;4.02;59.75
20630;BME280;17386;43.846;25.950;2024-01-15T01:22:37;100712.03;;;3.96;60.01
20630;BME280;17386;43.846;25.950;2024-01-15T01:25:02;100712.09;;;3.91;60.04
20630;BME280;17386;43.846;25.950;2024-01-15T01:27:28;100708.63;;;3.88;60.33
20630;BME280;17386;43.846;25.950;2024-01-15T01:29:53;100695.53;;;3.81;60.24
20630;BME280;17386;43.846;25.950;2024-01-15T01:32:19;100705.13;;;3.87;60.31
20630;BME280;17386;43.846;25.950;2024-01-15T01:34:44;100699.91;;;3.82;60.49
20630;BME280;17386;43.846;25.950;2024-01-15T01:37:10;100702.50;;;3.86;60.38
20630;BME280;17386;43.846;25.950;2024-01-15T01:39:40;100699.91;;;3.82;60.30
20630;BME280;17386;43.846;25.950;2024-01-15T01:42:05;100689.41;;;3.81;60.17
20630;BME280;17386;43.846;25.950;2024-01-15T01:44:31;100695.56;;;3.80;60.42
20630;BME280;17386;43.846;25.950;2024-01-15T01:46:58;100693.75;;;3.83;60.30
20630;BME280;17386;43.846;25.950;2024-01-15T01:49:24;100696.41;;;3.82;60.38
20630;BME280;17386;43.846;25.950;2024-01-15T01:51:50;100703.44;;;3.80;60.37
20630;BME280;17386;43.846;25.950;2024-01-15T01:54:16;100695.63;;;3.69;60.67
20630;BME280;17386;43.846;25.950;2024-01-15T01:56:42;100695.63;;;3.69;60.51
20630;BME280;17386;43.846;25.950;2024-01-15T01:59:09;100692.22;;;3.60;60.86
20630;BME280;17386;43.846;25.950;2024-01-15T02:01:36;100694.88;;;3.53;61.20
20630;BME280;17386;43.846;25.950;2024-01-15T02:04:03;100689.69;;;3.47;61.42
20630;BME280;17386;43.846;25.950;2024-01-15T02:06:29;100687.97;;;3.45;61.56
20630;BME280;17386;43.846;25.950;2024-01-15T02:08:55;100690.59;;;3.45;61.47
20630;BME280;17386;43.846;25.950;2024-01-15T02:11:20;100683.59;;;3.41;61.77
20630;BME280;17386;43.846;25.950;2024-01-15T02:13:46;100681.91;;;3.37;62.14
20630;BME280;17386;43.846;25.950;2024-01-15T02:16:12;100682.78;;;3.33;62.19
20630;BME280;17386;43.846;25.950;2024-01-15T02:18:44;100683.69;;;3.27;62.12
20630;BME280;17386;43.846;25.950;2024-01-15T02:21:10;100681.09;;;3.21;62.35
20630;BME280;17386;43.846;25.950;2024-01-15T02:23:37;100672.38;;;3.19;62.43
20630;BME280;17386;43.846;25.950;2024-01-15T02:26:04;100680.28;;;3.16;62.70
20630;BME280;17386;43.846;25.950;2024-01-15T02:28:30;100666.31;;;3.11;62.71
20630;BME280;17386;43.846;25.950;2024-01-15T02:30:55;100668.06;;;3.12;63.01
20630;BME280;17386;43.846;25.950;2024-01-15T02:33:21;100655.81;;;3.08;62.91
20630;BME280;17386;43.846;25.950;2024-01-15T02:35:46;100649.69;;;3.07;62.99
20630;BME280;17386;43.846;25.950;2024-01-15T02:38:15;100648.84;;;3.05;63.14
20630;BME280;17386;43.846;25.950;2024-01-15T02:40:40;100648.88;;;3.02;63.06
20630;BME280;17386;43.846;25.950;2024-01-15T02:43:06;100648.88;;;2.99;63.09
20630;BME280;17386;43.846;25.950;2024-01-15T02:45:31;100644.50;;;2.99;63.10
20630;BME280;17386;43.846;25.950;2024-01-15T02:47:57;100641.03;;;2.96;63.22
20630;BME280;17386;43.846;25.950;2024-01-15T02:50:22;100646.28;;;2.93;63.28
20630;BME280;17386;43.846;25.950;2024-01-15T02:52:47;100648.13;;;2.83;63.73
20630;BME280;17386;43.846;25.950;2024-01-15T02:55:13;100643.72;;;2.84;63.70
20630;BME280;17386;43.846;25.950;2024-01-15T02:57:38;100645.50;;;2.83;63.57
20630;BME280;17386;43.846;25.950;2024-01-15T03:00:04;100635.00;;;2.79;63.61
20630;BME280;17386;43.846;25.950;2024-01-15T03:02:30;100640.25;;;2.80;63.94
20630;BME280;17386;43.846;25.950;2024-01-15T03:04:57;100634.09;;;2.81;63.56
20630;BME280;17386;43.846;25.950;2024-01-15T03:07:23;100635.84;;;2.81;63.74
20630;BME280;17386;43.846;25.950;2024-01-15T03:09:48;100624.50;;;2.79;63.80
20630;BME280;17386;43.846;25.950;2024-01-15T03:12:14;100621.03;;;2.77;63.65
20630;BME280;17386;43.846;25.950;2024-01-15T03:14:39;100626.28;;;2.77;63.76
20630;BME280;17386;43.846;25.950;2024-01-15T03:17:04;100618.38;;;2.80;63.67
20630;BME280;17386;43.846;25.950;2024-01-15T03:19:30;100625.41;;;2.76;63.81
20630;BME280;17386;43.846;25.950;2024-01-15T03:21:56;100618.41;;;2.73;63.83
20630;BME280;17386;43.846;25.950;2024-01-15T03:24:22;100612.31;;;2.71;63.97
20630;BME280;17386;43.846;25.950;2024-01-15T03:26:47;100614.94;;;2.70;64.02
20630;BME280;17386;43.846;25.950;2024-01-15T03:29:12;100614.06;;;2.71;64.15
20630;BME280;17386;43.846;25.950;2024-01-15T03:31:38;100609.72;;;2.68;64.22
20630;BME280;17386;43.846;25.950;2024-01-15T03:34:03;100613.19;;;2.67;64.33
20630;BME280;17386;43.846;25.950;2024-01-15T03:36:29;100616.72;;;2.60;64.50
20630;BME280;17386;43.846;25.950;2024-01-15T03:38:54;100612.41;;;2.53;64.71
20630;BME280;17386;43.846;25.950;2024-01-15T03:41:20;100608.09;;;2.40;69.10
20630;BME280;17386;43.846;25.950;2024-01-15T03:43:49;100602.88;;;2.35;70.01
20630;BME280;17386;43.846;25.950;2024-01-15T03:46:15;100597.66;;;2.26;71.32
20630;BME280;17386;43.846;25.950;2024-01-15T03:48:40;100604.69;;;2.23;73.25
20630;BME280;17386;43.846;25.950;2024-01-15T03:51:06;100601.22;;;2.10;77.25
20630;BME280;17386;43.846;25.950;2024-01-15T03:53:31;100596.91;;;2.03;79.24
20630;BME280;17386;43.846;25.950;2024-01-15T03:55:56;100602.16;;;1.95;80.16
20630;BME280;17386;43.846;25.950;2024-01-15T03:58:22;100603.06;;;1.80;81.41
20630;BME280;17386;43.846;25.950;2024-01-15T04:00:47;100603.09;;;1.67;83.49
20630;BME280;17386;43.846;25.950;2024-01-15T04:03:13;100596.97;;;1.69;83.50
20630;BME280;17386;43.846;25.950;2024-01-15T04:05:38;100582.16;;;1.62;83.01
20630;BME280;17386;43.846;25.950;2024-01-15T04:08:04;100603.09;;;1.63;84.87
20630;BME280;17386;43.846;25.950;2024-01-15T04:10:29;100598.75;;;1.40;87.76
20630;BME280;17386;43.846;25.950;2024-01-15T04:12:55;100590.00;;;1.44;88.02
20630;BME280;17386;43.846;25.950;2024-01-15T04:15:20;100597.00;;;1.42;88.09
20630;BME280;17386;43.846;25.950;2024-01-15T04:17:46;100604.88;;;1.32;89.40
20630;BME280;17386;43.846;25.950;2024-01-15T04:20:11;100612.69;;;1.23;89.78
20630;BME280;17386;43.846;25.950;2024-01-15T04:22:36;100610.97;;;1.21;89.66
20630;BME280;17386;43.846;25.950;2024-01-15T04:25:02;100622.31;;;1.23;89.56
20630;BME280;17386;43.846;25.950;2024-01-15T04:27:28;100620.56;;;1.17;90.26
20630;BME280;17386;43.846;25.950;2024-01-15T04:29:54;100625.81;;;1.19;90.01
20630;BME280;17386;43.846;25.950;2024-01-15T04:32:19;100617.94;;;1.16;89.80
20630;BME280;17386;43.846;25.950;2024-01-15T04:34:45;100635.38;;;1.21;89.41
20630;BME280;17386;43.846;25.950;2024-01-15T04:37:10;100630.16;;;1.23;88.55
20630;BME280;17386;43.846;25.950;2024-01-15T04:39:36;100623.16;;;1.22;87.90
20630;BME280;17386;43.846;25.950;2024-01-15T04:42:02;100620.56;;;1.20;86.72
20630;BME280;17386;43.846;25.950;2024-01-15T04:44:28;100629.28;;;1.25;85.79
20630;BME280;17386;43.846;25.950;2024-01-15T04:46:53;100628.44;;;1.25;85.36
20630;BME280;17386;43.846;25.950;2024-01-15T04:49:19;100624.91;;;1.21;85.06
20630;BME280;17386;43.846;25.950;2024-01-15T04:51:44;100624.91;;;1.21;84.71
20630;BME280;17386;43.846;25.950;2024-01-15T04:54:10;100617.06;;;1.12;84.35
20630;BME280;17386;43.846;25.950;2024-01-15T04:56:36;100624.91;;;1.17;83.35
20630;BME280;17386;43.846;25.950;2024-01-15T04:59:02;100616.22;;;1.19;83.11
20630;BME280;17386;43.846;25.950;2024-01-15T05:01:31;100612.72;;;1.20;82.65
20630;BME280;17386;43.846;25.950;2024-01-15T05:03:57;100623.19;;;1.20;82.74
20630;BME280;17386;43.846;25.950;2024-01-15T05:06:22;100624.03;;;1.13;82.56
20630;BME280;17386;43.846;25.950;2024-01-15T05:08:48;100627.53;;;1.12;82.91
20630;BME280;17386;43.846;25.950;2024-01-15T05:11:13;100615.34;;;1.19;83.04
20630;BME280;17386;43.846;25.950;2024-01-15T05:13:38;100618.84;;;1.25;82.60
20630;BME280;17386;43.846;25.950;2024-01-15T05:16:04;100625.78;;;1.28;83.11
20630;BME280;17386;43.846;25.950;2024-01-15T05:18:29;100616.22;;;1.31;82.54
20630;BME280;17386;43.846;25.950;2024-01-15T05:20:55;100597.03;;;1.25;82.22
20630;BME280;17386;43.846;25.950;2024-01-15T05:23:20;100608.34;;;1.28;82.17
20630;BME280;17386;43.846;25.950;2024-01-15T05:25:45;100612.72;;;1.26;82.67
20630;BME280;17386;43.846;25.950;2024-01-15T05:28:11;100604.00;;;1.27;82.90
20630;BME280;17386;43.846;25.950;2024-01-15T05:30:36;100591.78;;;1.26;82.57
20630;BME280;17386;43.846;25.950;2024-01-15T05:33:02;100594.41;;;1.26;82.07
20630;BME280;17386;43.846;25.950;2024-01-15T05:35:28;100593.53;;;1.21;82.04
20630;BME280;17386;43.846;25.950;2024-01-15T05:37:53;100590.91;;;1.17;82.18
20630;BME280;17386;43.846;25.950;2024-01-15T05:40:19;100582.19;;;1.18;82.25
20630;BME280;17386;43.846;25.950;2024-01-15T05:42:44;100573.47;;;1.17;82.33
20630;BME280;17386;43.846;25.950;2024-01-15T05:45:10;100571.72;;;1.18;82.73
20630;BME280;17386;43.846;25.950;2024-01-15T05:47:35;100573.47;;;1.20;82.54
20630;BME280;17386;43.846;25.950;2024-01-15T05:50:01;100570.88;;;1.17;82.58
20630;BME280;17386;43.846;25.950;2024-01-15T05:52:27;100566.50;;;1.18;82.61
20630;BME280;17386;43.846;25.950;2024-01-15T05:54:52;100568.25;;;1.17;82.77
20630;BME280;17386;43.846;25.950;2024-01-15T05:57:18;100563.00;;;1.19;83.09
20630;BME280;17386;43.846;25.950;2024-01-15T05:59:44;100559.50;;;1.20;83.21
20630;BME280;17386;43.846;25.950;2024-01-15T06:02:09;100550.78;;;1.22;83.51
20630;BME280;17386;43.846;25.950;2024-01-15T06:04:35;100552.50;;;1.23;83.22
20630;BME280;17386;43.846;25.950;2024-01-15T06:07:00;100554.28;;;1.21;83.30
20630;BME280;17386;43.846;25.950;2024-01-15T06:09:26;100559.53;;;1.18;83.71
20630;BME280;17386;43.846;25.950;2024-01-15T06:11:51;100571.72;;;1.19;83.41
20630;BME280;17386;43.846;25.950;2024-01-15T06:14:16;100569.97;;;1.17;83.63
20630;BME280;17386;43.846;25.950;2024-01-15T06:16:42;100577.81;;;1.23;83.40
20630;BME280;17386;43.846;25.950;2024-01-15T06:19:07;100571.72;;;1.25;83.12
20630;BME280;17386;43.846;25.950;2024-01-15T06:21:33;100566.50;;;1.24;83.14
20630;BME280;17386;43.846;25.950;2024-01-15T06:23:58;100571.72;;;1.31;83.03
20630;BME280;17386;43.846;25.950;2024-01-15T06:26:24;100568.22;;;1.39;83.53
20630;BME280;17386;43.846;25.950;2024-01-15T06:28:50;100565.59;;;1.45;84.78
20630;BME280;17386;43.846;25.950;2024-01-15T06:31:15;100548.13;;;1.42;86.29
20630;BME280;17386;43.846;25.950;2024-01-15T06:33:41;100573.44;;;1.60;87.15
20630;BME280;17386;43.846;25.950;2024-01-15T06:36:07;100565.59;;;1.58;87.66
20630;BME280;17386;43.846;25.950;2024-01-15T06:38:32;100575.16;;;1.62;88.25
20630;BME280;17386;43.846;25.950;2024-01-15T06:40:58;100564.72;;;1.59;88.76
20630;BME280;17386;43.846;25.950;2024-01-15T06:43:23;100578.63;;;1.71;89.24
20630;BME280;17386;43.846;25.950;2024-01-15T06:45:49;100569.91;;;1.76;90.19
20630;BME280;17386;43.846;25.950;2024-01-15T06:48:15;100574.28;;;1.79;90.34
20630;BME280;17386;43.846;25.950;2024-01-15T06:50:44;100577.75;;;1.81;90.86
20630;BME280;17386;43.846;25.950;2024-01-15T06:53:10;100579.50;;;1.80;91.32
20630;BME280;17386;43.846;25.950;2024-01-15T06:55:35;100574.25;;;1.86;91.15
20630;BME280;17386;43.846;25.950;2024-01-15T06:58:01;100567.25;;;1.84;91.11
20630;BME280;17386;43.846;25.950;2024-01-15T07:00:26;100562.88;;;1.90;91.25
20630;BME280;17386;43.846;25.950;2024-01-15T07:02:52;100559.38;;;1.95;90.71
20630;BME280;17386;43.846;25.950;2024-01-15T07:05:18;100561.06;;;2.08;90.35
20630;BME280;17386;43.846;25.950;2024-01-15T07:07:43;100564.53;;;2.16;90.08
20630;BME280;17386;43.846;25.950;2024-01-15T07:10:09;100567.09;;;2.24;89.89
20630;BME280;17386;43.846;25.950;2024-01-15T07:12:35;100548.78;;;2.17;89.59
20630;BME280;17386;43.846;25.950;2024-01-15T07:15:07;100568.81;;;2.32;88.80
20630;BME280;17386;43.846;25.950;2024-01-15T07:17:34;100565.28;;;2.41;88.41
20630;BME280;17386;43.846;25.950;2024-01-15T07:19:59;100557.44;;;2.38;87.60
20630;BME280;17386;43.846;25.950;2024-01-15T07:22:24;100560.00;;;2.49;87.27
20630;BME280;17386;43.846;25.950;2024-01-15T07:24:50;100557.31;;;2.62;87.11
20630;BME280;17386;43.846;25.950;2024-01-15T07:27:15;100555.47;;;2.73;86.73
20630;BME280;17386;43.846;25.950;2024-01-15T07:29:41;100552.78;;;2.81;86.43
20630;BME280;17386;43.846;25.950;2024-01-15T07:32:07;100552.69;;;2.95;86.17
20630;BME280;17386;43.846;25.950;2024-01-15T07:34:33;100548.25;;;3.01;85.76
20630;BME280;17386;43.846;25.950;2024-01-15T07:36:58;100543.81;;;3.11;85.61
20630;BME280;17386;43.846;25.950;2024-01-15T07:39:24;100548.97;;;3.23;85.02
20630;BME280;17386;43.846;25.950;2024-01-15T07:41:53;100545.34;;;3.37;84.89
20630;BME280;17386;43.846;25.950;2024-01-15T07:44:18;100545.34;;;3.38;83.33
20630;BME280;17386;43.846;25.950;2024-01-15T07:46:45;100547.88;;;3.46;82.73
20630;BME280;17386;43.846;25.950;2024-01-15T07:49:11;100534.69;;;3.52;82.52
20630;BME280;17386;43.846;25.950;2024-01-15T07:51:37;100538.03;;;3.66;82.27
20630;BME280;17386;43.846;25.950;2024-01-15T07:54:03;100537.03;;;3.79;82.25
20630;BME280;17386;43.846;25.950;2024-01-15T07:56:28;100539.53;;;3.92;81.68
20630;BME280;17386;43.846;25.950;2024-01-15T07:58:54;100535.94;;;3.97;81.12
20630;BME280;17386;43.846;25.950;2024-01-15T08:01:19;100541.06;;;4.08;80.53
20630;BME280;17386;43.846;25.950;2024-01-15T08:03:45;100540.88;;;4.22;80.07
20630;BME280;17386;43.846;25.950;2024-01-15T08:06:10;100543.41;;;4.32;79.33
20630;BME280;17386;43.846;25.950;2024-01-15T08:08:36;100535.41;;;4.40;79.33
20630;BME280;17386;43.846;25.950;2024-01-15T08:11:02;100547.66;;;4.41;78.83
20630;BME280;17386;43.846;25.950;2024-01-15T08:13:27;100537.97;;;4.43;78.14
20630;BME280;17386;43.846;25.950;2024-01-15T08:15:53;100549.28;;;4.50;77.53
20630;BME280;17386;43.846;25.950;2024-01-15T08:18:18;100543.00;;;4.61;77.01
20630;BME280;17386;43.846;25.950;2024-01-15T08:20:45;100533.16;;;4.73;75.99
20630;BME280;17386;43.846;25.950;2024-01-15T08:23:11;100524.19;;;4.87;75.10
20630;BME280;17386;43.846;25.950;2024-01-15T08:25:36;100539.75;;;5.01;74.15
20630;BME280;17386;43.846;25.950;2024-01-15T08:28:02;100525.56;;;5.10;74.18
20630;BME280;17386;43.846;25.950;2024-01-15T08:30:27;100516.56;;;5.23;74.15
20630;BME280;17386;43.846;25.950;2024-01-15T08:32:53;100506.53;;;5.42;73.53
20630;BME280;17386;43.846;25.950;2024-01-15T08:35:19;100511.56;;;5.56;72.47
20630;BME280;17386;43.846;25.950;2024-01-15T08:37:49;100520.97;;;5.69;69.68
20630;BME280;17386;43.846;25.950;2024-01-15T08:40:15;100524.13;;;5.88;64.37
20630;BME280;17386;43.846;25.950;2024-01-15T08:42:41;100501.22;;;5.90;62.73
20630;BME280;17386;43.846;25.950;2024-01-15T08:45:06;100519.19;;;6.16;62.73
20630;BME280;17386;43.846;25.950;2024-01-15T08:47:32;100522.38;;;6.32;63.36
20630;BME280;17386;43.846;25.950;2024-01-15T08:49:57;100513.63;;;6.29;64.92
20630;BME280;17386;43.846;25.950;2024-01-15T08:52:24;100517.91;;;6.35;63.62
20630;BME280;17386;43.846;25.950;2024-01-15T08:54:52;100512.69;;;6.71;62.90
20630;BME280;17386;43.846;25.950;2024-01-15T08:57:17;100505.69;;;7.05;62.17
20630;BME280;17386;43.846;25.950;2024-01-15T08:59:43;100498.88;;;7.31;58.75
20630;BME280;17386;43.846;25.950;2024-01-15T09:02:08;100482.47;;;7.83;54.86
20630;BME280;17386;43.846;25.950;2024-01-15T09:04:34;100480.47;;;8.50;51.37
20630;BME280;17386;43.846;25.950;2024-01-15T09:06:59;100477.41;;;8.91;48.02
20630;BME280;17386;43.846;25.950;2024-01-15T09:09:25;100468.03;;;9.07;47.76
20630;BME280;17386;43.846;25.950;2024-01-15T09:11:51;100446.31;;;9.22;46.33
20630;BME280;17386;43.846;25.950;2024-01-15T09:14:16;100441.03;;;9.47;45.73
20630;BME280;17386;43.846;25.950;2024-01-15T09:16:42;100432.72;;;9.56;45.43
20630;BME280;17386;43.846;25.950;2024-01-15T09:19:08;100437.63;;;9.67;44.97
20630;BME280;17386;43.846;25.950;2024-01-15T09:21:33;100429.06;;;9.84;44.44
20630;BME280;17386;43.846;25.950;2024-01-15T09:23:59;100420.50;;;9.99;44.93
20630;BME280;17386;43.846;25.950;2024-01-15T09:26:24;100431.03;;;10.02;43.55
20630;BME280;17386;43.846;25.950;2024-01-15T09:28:50;100421.03;;;10.09;43.07
20630;BME280;17386;43.846;25.950;2024-01-15T09:31:15;100408.91;;;10.25;42.37
20630;BME280;17386;43.846;25.950;2024-01-15T09:33:42;100408.38;;;10.39;41.90
20630;BME280;17386;43.846;25.950;2024-01-15T09:36:08;100402.81;;;10.45;41.86
20630;BME280;17386;43.846;25.950;2024-01-15T09:38:34;100399.28;;;10.45;41.98
20630;BME280;17386;43.846;25.950;2024-01-15T09:41:00;100403.13;;;10.59;40.95
20630;BME280;17386;43.846;25.950;2024-01-15T09:43:25;100400.69;;;10.75;40.83
20630;BME280;17386;43.846;25.950;2024-01-15T09:45:51;100392.97;;;10.89;41.02
20630;BME280;17386;43.846;25.950;2024-01-15T09:48:18;100375.41;;;11.07;41.36
20630;BME280;17386;43.846;25.950;2024-01-15T09:50:44;100378.25;;;11.23;40.84
20630;BME280;17386;43.846;25.950;2024-01-15T09:53:09;100370.94;;;11.28;39.74
20630;BME280;17386;43.846;25.950;2024-01-15T09:55:38;100348.00;;;11.26;39.57
20630;BME280;17386;43.846;25.950;2024-01-15T09:58:03;100360.16;;;11.31;39.63
20630;BME280;17386;43.846;25.950;2024-01-15T10:00:29;100366.53;;;11.47;39.79
20630;BME280;17386;43.846;25.950;2024-01-15T10:02:56;100360.69;;;11.58;38.45
20630;BME280;17386;43.846;25.950;2024-01-15T10:06:16;100366.00;;;11.58;38.49
20630;BME280;17386;43.846;25.950;2024-01-15T10:08:36;100361.28;;;11.65;37.97
20630;BME280;17386;43.846;25.950;2024-01-15T10:11:02;100365.34;;;11.73;38.50
20630;BME280;17386;43.846;25.950;2024-01-15T10:13:30;100366.81;;;11.79;38.79
20630;BME280;17386;43.846;25.950;2024-01-15T10:15:55;100367.31;;;11.89;38.15
20630;BME280;17386;43.846;25.950;2024-01-15T10:18:21;100356.66;;;11.89;38.22
20630;BME280;17386;43.846;25.950;2024-01-15T10:20:47;100348.78;;;12.04;37.55
20630;BME280;17386;43.846;25.950;2024-01-15T10:23:15;100337.19;;;12.24;37.99
20630;BME280;17386;43.846;25.950;2024-01-15T10:25:44;100340.25;;;12.34;37.69
20630;BME280;17386;43.846;25.950;2024-01-15T10:28:09;100331.28;;;12.88;36.31
20630;BME280;17386;43.846;25.950;2024-01-15T10:30:35;100330.69;;;13.67;35.49
20630;BME280;17386;43.846;25.950;2024-01-15T10:33:03;100317.91;;;14.35;33.86
20630;BME280;17386;43.846;25.950;2024-01-15T10:35:34;100300.59;;;15.17;33.15
20630;BME280;17386;43.846;25.950;2024-01-15T10:38:03;100287.91;;;15.90;31.43
20630;BME280;17386;43.846;25.950;2024-01-15T10:40:29;100272.50;;;16.48;30.54
20630;BME280;17386;43.846;25.950;2024-01-15T10:42:55;100260.78;;;16.76;29.69
20630;BME280;17386;43.846;25.950;2024-01-15T10:45:20;100257.78;;;17.06;29.18
20630;BME280;17386;43.846;25.950;2024-01-15T10:47:46;100260.22;;;17.21;28.86
20630;BME280;17386;43.846;25.950;2024-01-15T10:50:12;100248.44;;;17.11;29.35
20630;BME280;17386;43.846;25.950;2024-01-15T10:52:38;100254.31;;;17.29;28.38
20630;BME280;17386;43.846;25.950;2024-01-15T10:55:09;100244.09;;;17.34;28.42
20630;BME280;17386;43.846;25.950;2024-01-15T10:57:37;100236.59;;;17.27;28.34
20630;BME280;17386;43.846;25.950;2024-01-15T11:00:04;100238.44;;;17.01;28.49
20630;BME280;17386;43.846;25.950;2024-01-15T11:02:35;100216.66;;;17.05;28.63
20630;BME280;17386;43.846;25.950;2024-01-15T11:05:01;100211.59;;;17.13;28.75
20630;BME280;17386;43.846;25.950;2024-01-15T11:07:27;100208.63;;;17.05;28.30
20630;BME280;17386;43.846;25.950;2024-01-15T11:09:52;100187.94;;;16.17;29.59
20630;BME280;17386;43.846;25.950;2024-01-15T11:12:18;100199.47;;;16.04;29.63
20630;BME280;17386;43.846;25.950;2024-01-15T11:14:50;100183.44;;;15.90;30.31
20630;BME280;17386;43.846;25.950;2024-01-15T11:17:17;100168.16;;;16.05;29.94
20630;BME280;17386;43.846;25.950;2024-01-15T11:19:48;100155.16;;;16.38;29.94
20630;BME280;17386;43.846;25.950;2024-01-15T11:25:17;100162.88;;;17.07;28.11
20630;BME280;17386;43.846;25.950;2024-01-15T11:27:45;100163.94;;;17.30;27.94
20630;BME280;17386;43.846;25.950;2024-01-15T11:30:17;100156.38;;;17.35;27.85
20630;BME280;17386;43.846;25.950;2024-01-15T11:32:45;100159.19;;;17.33;27.96
20630;BME280;17386;43.846;25.950;2024-01-15T11:35:12;100148.50;;;17.08;28.16
20630;BME280;17386;43.846;25.950;2024-01-15T11:40:20;100152.44;;;15.73;29.48
20630;BME280;17386;43.846;25.950;2024-01-15T11:42:46;100164.19;;;15.71;29.45
20630;BME280;17386;43.846;25.950;2024-01-15T11:45:15;100144.94;;;15.51;29.71
20630;BME280;17386;43.846;25.950;2024-01-15T11:50:30;100168.25;;;14.21;31.86
20630;BME280;17386;43.846;25.950;2024-01-15T11:53:01;100170.97;;;14.05;32.68
20630;BME280;17386;43.846;25.950;2024-01-15T11:55:30;100163.53;;;14.10;32.49
20630;BME280;17386;43.846;25.950;2024-01-15T11:58:00;100156.38;;;14.11;32.51
20630;BME280;17386;43.846;25.950;2024-01-15T12:00:26;100142.78;;;14.15;32.57
20630;BME280;17386;43.846;25.950;2024-01-15T12:02:52;100143.69;;;14.00;32.91
20630;BME280;17386;43.846;25.950;2024-01-15T12:05:19;100137.56;;;13.98;33.16
20630;BME280;17386;43.846;25.950;2024-01-15T12:07:47;100136.91;;;13.94;33.60
20630;BME280;17386;43.846;25.950;2024-01-15T12:10:22;100126.84;;;13.84;33.48
20630;BME280;17386;43.846;25.950;2024-01-15T12:13:05;100113.75;;;13.79;33.72
20630;BME280;17386;43.846;25.950;2024-01-15T12:15:31;100116.19;;;13.68;33.94
20630;BME280;17386;43.846;25.950;2024-01-15T12:17:59;100117.16;;;13.67;34.04
20630;BME280;17386;43.846;25.950;2024-01-15T12:20:26;100113.69;;;13.65;34.18
20630;BME280;17386;43.846;25.950;2024-01-15T12:22:52;100106.06;;;13.59;34.32
20630;BME280;17386;43.846;25.950;2024-01-15T12:25:17;100100.53;;;13.62;34.59
20630;BME280;17386;43.846;25.950;2024-01-15T12:27:43;100092.94;;;13.70;34.79
20630;BME280;17386;43.846;25.950;2024-01-15T12:30:13;100095.00;;;13.81;34.25
20630;BME280;17386;43.846;25.950;2024-01-15T12:32:40;100088.47;;;13.71;34.33
20630;BME280;17386;43.846;25.950;2024-01-15T12:35:06;100083.84;;;13.58;34.76
20630;BME280;17386;43.846;25.950;2024-01-15T12:37:31;100082.97;;;13.58;34.95
20630;BME280;17386;43.846;25.950;2024-01-15T12:39:58;100079.75;;;13.53;35.01
20630;BME280;17386;43.846;25.950;2024-01-15T12:42:24;100065.31;;;13.41;35.43
20630;BME280;17386;43.846;25.950;2024-01-15T12:44:50;100068.91;;;13.40;35.75
20630;BME280;17386;43.846;25.950;2024-01-15T12:47:15;100067.88;;;13.43;35.76
20630;BME280;17386;43.846;25.950;2024-01-15T12:49:46;100069.09;;;13.37;36.01
20630;BME280;17386;43.846;25.950;2024-01-15T12:52:13;100062.38;;;13.46;35.98